sensor_id;sensor_type;location;lat;lon;timestamp;P1;durP1;ratioP1;P2;durP2;ratioP2
40717;SDS011;26405;51.850;-2.246;2024-02-15T00:01:28;1.40;;;1.30;;
40717;SDS011;26405;51.850;-2.246;2024-02-15T00:03:54;2.50;;;1.38;;
40717;SDS011;26405;51.850;-2.246;2024-02-15T00:06:20;3.00;;;1.33;;
40717;SDS011;26405;51.850;-2.246;2024-02-15T00:08:45;1.55;;;1.45;;
40717;SDS011;26405;51.850;-2.246;2024-02-15T00:11:10;2.65;;;1.40;;
40717;SDS011;26405;51.850;-2.246;2024-02-15T00:13:35;2.13;;;1.50;;
40717;SDS011;26405;51.850;-2.246;2024-02-15T00:16:01;2.28;;;1.40;;
40717;SDS011;26405;51.850;-2.246;2024-02-15T00:18:31;1.77;;;1.23;;
40717;SDS011;26405;51.850;-2.246;2024-02-15T00:20:56;1.50;;;1.25;;
40717;SDS011;26405;51.850;-2.246;2024-02-15T00:23:21;2.00;;;1.38;;
40717;SDS011;26405;51.850;-2.246;2024-02-15T00:25:47;2.33;;;1.52;;
40717;SDS011;26405;51.850;-2.246;2024-02-15T00:28:12;5.25;;;1.35;;
40717;SDS011;26405;51.850;-2.246;2024-02-15T00:30:38;3.60;;;1.40;;
40717;SDS011;26405;51.850;-2.246;2024-02-15T00:33:03;2.35;;;1.42;;
40717;SDS011;26405;51.850;-2.246;2024-02-15T00:35:29;1.52;;;1.38;;
40717;SDS011;26405;51.850;-2.246;2024-02-15T00:37:54;1.75;;;1.38;;
40717;SDS011;26405;51.850;-2.246;2024-02-15T00:40:20;1.70;;;1.60;;
40717;SDS011;26405;51.850;-2.246;2024-02-15T00:42:46;2.70;;;1.55;;
40717;SDS011;26405;51.850;-2.246;2024-02-15T00:45:12;1.55;;;1.13;;
40717;SDS011;26405;51.850;-2.246;2024-02-15T00:47:37;1.52;;;1.40;;
40717;SDS011;26405;51.850;-2.246;2024-02-15T00:50:03;2.63;;;1.70;;
40717;SDS011;26405;51.850;-2.246;2024-02-15T00:52:29;2.17;;;1.42;;
40717;SDS011;26405;51.850;-2.246;2024-02-15T00:54:55;2.60;;;1.30;;
40717;SDS011;26405;51.850;-2.246;2024-02-15T00:57:21;1.10;;;0.98;;
40717;SDS011;26405;51.850;-2.246;2024-02-15T00:59:46;1.50;;;1.10;;
40717;SDS011;26405;51.850;-2.246;2024-02-15T01:02:13;1.05;;;1.02;;
40717;SDS011;26405;51.850;-2.246;2024-02-15T01:04:38;3.70;;;1.50;;
40717;SDS011;26405;51.850;-2.246;2024-02-15T01:07:04;1.67;;;1.30;;
40717;SDS011;26405;51.850;-2.246;2024-02-15T01:09:29;2.30;;;1.10;;
40717;SDS011;26405;51.850;-2.246;2024-02-15T01:11:55;0.90;;;0.90;;
40717;SDS011;26405;51.850;-2.246;2024-02-15T01:14:20;1.20;;;1.10;;
40717;SDS011;26405;51.850;-2.246;2024-02-15T01:16:46;1.63;;;1.30;;
40717;SDS011;26405;51.850;-2.246;2024-02-15T01:19:11;1.20;;;1.10;;
40717;SDS011;26405;51.850;-2.246;2024-02-15T01:21:37;1.25;;;1.15;;
40717;SDS011;26405;51.850;-2.246;2024-02-15T01:24:03;2.08;;;1.23;;
40717;SDS011;26405;51.850;-2.246;2024-02-15T01:26:32;1.30;;;1.00;;
40717;SDS011;26405;51.850;-2.246;2024-02-15T01:28:57;2.90;;;1.40;;
40717;SDS011;26405;51.850;-2.246;2024-02-15T01:31:22;1.80;;;1.17;;
40717;SDS011;26405;51.850;-2.246;2024-02-15T01:33:48;1.17;;;1.08;;
40717;SDS011;26405;51.850;-2.246;2024-02-15T01:36:14;2.10;;;1.05;;
40717;SDS011;26405;51.850;-2.246;2024-02-15T01:41:05;4.32;;;1.33;;
40717;SDS011;26405;51.850;-2.246;2024-02-15T01:43:31;1.30;;;1.20;;
40717;SDS011;26405;51.850;-2.246;2024-02-15T01:45:56;5.32;;;1.80;;
40717;SDS011;26405;51.850;-2.246;2024-02-15T01:48:24;2.17;;;1.40;;
40717;SDS011;26405;51.850;-2.246;2024-02-15T01:50:49;3.05;;;1.30;;
40717;SDS011;26405;51.850;-2.246;2024-02-15T01:53:18;1.40;;;1.30;;
40717;SDS011;26405;51.850;-2.246;2024-02-15T01:55:43;1.88;;;1.42;;
40717;SDS011;26405;51.850;-2.246;2024-02-15T01:58:08;1.30;;;1.20;;
40717;SDS011;26405;51.850;-2.246;2024-02-15T02:00:34;1.25;;;1.15;;
40717;SDS011;26405;51.850;-2.246;2024-02-15T02:02:59;2.00;;;1.13;;
40717;SDS011;26405;51.850;-2.246;2024-02-15T02:05:30;1.58;;;1.20;;
40717;SDS011;26405;51.850;-2.246;2024-02-15T02:07:56;1.20;;;1.10;;
40717;SDS011;26405;51.850;-2.246;2024-02-15T02:10:26;1.23;;;1.13;;
40717;SDS011;26405;51.850;-2.246;2024-02-15T02:13:04;1.10;;;0.98;;
40717;SDS011;26405;51.850;-2.246;2024-02-15T02:15:33;1.20;;;1.10;;
40717;SDS011;26405;51.850;-2.246;2024-02-15T02:17:59;1.20;;;1.20;;
40717;SDS011;26405;51.850;-2.246;2024-02-15T02:20:25;1.23;;;1.17;;
40717;SDS011;26405;51.850;-2.246;2024-02-15T02:22:50;1.48;;;1.30;;
40717;SDS011;26405;51.850;-2.246;2024-02-15T02:25:19;1.20;;;1.10;;
40717;SDS011;26405;51.850;-2.246;2024-02-15T02:27:45;1.73;;;1.20;;
40717;SDS011;26405;51.850;-2.246;2024-02-15T02:30:13;1.00;;;0.82;;
40717;SDS011;26405;51.850;-2.246;2024-02-15T02:32:47;2.15;;;1.20;;
40717;SDS011;26405;51.850;-2.246;2024-02-15T02:35:12;1.90;;;1.02;;
40717;SDS011;26405;51.850;-2.246;2024-02-15T02:37:38;1.25;;;1.20;;
40717;SDS011;26405;51.850;-2.246;2024-02-15T02:40:07;1.13;;;1.10;;
40717;SDS011;26405;51.850;-2.246;2024-02-15T02:42:35;2.45;;;1.40;;
40717;SDS011;26405;51.850;-2.246;2024-02-15T02:45:00;1.50;;;1.40;;
40717;SDS011;26405;51.850;-2.246;2024-02-15T02:47:25;1.40;;;1.30;;
40717;SDS011;26405;51.850;-2.246;2024-02-15T02:49:50;2.47;;;1.20;;
40717;SDS011;26405;51.850;-2.246;2024-02-15T02:52:16;1.15;;;1.05;;
40717;SDS011;26405;51.850;-2.246;2024-02-15T02:54:41;1.58;;;1.45;;
40717;SDS011;26405;51.850;-2.246;2024-02-15T02:57:06;1.80;;;1.30;;
40717;SDS011;26405;51.850;-2.246;2024-02-15T02:59:33;1.25;;;1.13;;
40717;SDS011;26405;51.850;-2.246;2024-02-15T03:01:59;1.70;;;1.38;;
40717;SDS011;26405;51.850;-2.246;2024-02-15T03:04:24;1.13;;;1.13;;
40717;SDS011;26405;51.850;-2.246;2024-02-15T03:06:49;1.40;;;1.30;;
40717;SDS011;26405;51.850;-2.246;2024-02-15T03:09:16;2.00;;;0.93;;
40717;SDS011;26405;51.850;-2.246;2024-02-15T03:11:42;1.10;;;1.10;;
40717;SDS011;26405;51.850;-2.246;2024-02-15T03:14:07;2.88;;;1.20;;
40717;SDS011;26405;51.850;-2.246;2024-02-15T03:16:33;1.60;;;1.20;;
40717;SDS011;26405;51.850;-2.246;2024-02-15T03:19:01;1.45;;;1.35;;
40717;SDS011;26405;51.850;-2.246;2024-02-15T03:21:29;3.20;;;1.20;;
40717;SDS011;26405;51.850;-2.246;2024-02-15T03:23:55;1.30;;;1.20;;
40717;SDS011;26405;51.850;-2.246;2024-02-15T03:26:28;1.17;;;1.08;;
40717;SDS011;26405;51.850;-2.246;2024-02-15T03:28:54;1.10;;;1.10;;
40717;SDS011;26405;51.850;-2.246;2024-02-15T03:31:19;1.40;;;1.10;;
40717;SDS011;26405;51.850;-2.246;2024-02-15T03:33:45;2.67;;;1.00;;
40717;SDS011;26405;51.850;-2.246;2024-02-15T03:36:10;1.55;;;1.10;;
40717;SDS011;26405;51.850;-2.246;2024-02-15T03:38:36;2.10;;;0.90;;
40717;SDS011;26405;51.850;-2.246;2024-02-15T03:41:02;1.25;;;1.15;;
40717;SDS011;26405;51.850;-2.246;2024-02-15T03:43:27;1.08;;;1.08;;
40717;SDS011;26405;51.850;-2.246;2024-02-15T03:45:52;1.00;;;1.00;;
40717;SDS011;26405;51.850;-2.246;2024-02-15T03:48:18;1.00;;;1.00;;
40717;SDS011;26405;51.850;-2.246;2024-02-15T03:50:46;1.30;;;1.05;;
40717;SDS011;26405;51.850;-2.246;2024-02-15T03:53:11;1.13;;;1.00;;
40717;SDS011;26405;51.850;-2.246;2024-02-15T03:55:37;2.20;;;0.98;;
40717;SDS011;26405;51.850;-2.246;2024-02-15T03:58:03;0.95;;;0.95;;
40717;SDS011;26405;51.850;-2.246;2024-02-15T04:00:34;1.48;;;1.38;;
40717;SDS011;26405;51.850;-2.246;2024-02-15T04:03:00;0.93;;;0.93;;
40717;SDS011;26405;51.850;-2.246;2024-02-15T04:05:26;1.00;;;0.90;;
40717;SDS011;26405;51.850;-2.246;2024-02-15T04:07:51;1.23;;;1.13;;
40717;SDS011;26405;51.850;-2.246;2024-02-15T04:12:43;2.10;;;1.17;;
40717;SDS011;26405;51.850;-2.246;2024-02-15T04:15:09;1.08;;;1.08;;
40717;SDS011;26405;51.850;-2.246;2024-02-15T04:17:37;1.88;;;1.10;;
40717;SDS011;26405;51.850;-2.246;2024-02-15T04:20:03;2.05;;;1.17;;
40717;SDS011;26405;51.850;-2.246;2024-02-15T04:22:29;3.47;;;1.30;;
40717;SDS011;26405;51.850;-2.246;2024-02-15T04:27:22;2.90;;;1.30;;
40717;SDS011;26405;51.850;-2.246;2024-02-15T04:29:47;1.25;;;1.20;;
40717;SDS011;26405;51.850;-2.246;2024-02-15T04:32:12;2.80;;;1.20;;
40717;SDS011;26405;51.850;-2.246;2024-02-15T04:34:38;2.22;;;1.38;;
40717;SDS011;26405;51.850;-2.246;2024-02-15T04:37:04;4.63;;;1.70;;
40717;SDS011;26405;51.850;-2.246;2024-02-15T04:39:35;2.38;;;1.35;;
40717;SDS011;26405;51.850;-2.246;2024-02-15T04:42:02;2.53;;;1.42;;
40717;SDS011;26405;51.850;-2.246;2024-02-15T04:44:34;1.38;;;1.27;;
40717;SDS011;26405;51.850;-2.246;2024-02-15T04:47:00;2.20;;;1.30;;
40717;SDS011;26405;51.850;-2.246;2024-02-15T04:49:30;4.05;;;1.60;;
40717;SDS011;26405;51.850;-2.246;2024-02-15T04:51:55;4.05;;;1.40;;
40717;SDS011;26405;51.850;-2.246;2024-02-15T04:54:23;2.35;;;1.50;;
40717;SDS011;26405;51.850;-2.246;2024-02-15T04:56:49;3.33;;;1.58;;
40717;SDS011;26405;51.850;-2.246;2024-02-15T04:59:19;3.67;;;1.40;;
40717;SDS011;26405;51.850;-2.246;2024-02-15T05:01:46;4.00;;;1.90;;
40717;SDS011;26405;51.850;-2.246;2024-02-15T05:04:12;7.43;;;1.77;;
40717;SDS011;26405;51.850;-2.246;2024-02-15T05:06:41;6.25;;;1.60;;
40717;SDS011;26405;51.850;-2.246;2024-02-15T05:09:09;3.00;;;1.65;;
40717;SDS011;26405;51.850;-2.246;2024-02-15T05:11:36;4.82;;;1.67;;
40717;SDS011;26405;51.850;-2.246;2024-02-15T05:14:05;4.18;;;1.83;;
40717;SDS011;26405;51.850;-2.246;2024-02-15T05:16:32;4.88;;;1.80;;
40717;SDS011;26405;51.850;-2.246;2024-02-15T05:18:57;2.95;;;1.63;;
40717;SDS011;26405;51.850;-2.246;2024-02-15T05:21:23;5.38;;;1.73;;
40717;SDS011;26405;51.850;-2.246;2024-02-15T05:23:48;5.53;;;1.85;;
40717;SDS011;26405;51.850;-2.246;2024-02-15T05:26:14;5.50;;;2.30;;
40717;SDS011;26405;51.850;-2.246;2024-02-15T05:28:41;3.60;;;1.70;;
40717;SDS011;26405;51.850;-2.246;2024-02-15T05:31:08;7.93;;;1.98;;
40717;SDS011;26405;51.850;-2.246;2024-02-15T05:33:40;3.60;;;1.73;;
40717;SDS011;26405;51.850;-2.246;2024-02-15T05:36:12;6.18;;;1.75;;
40717;SDS011;26405;51.850;-2.246;2024-02-15T05:38:38;6.95;;;2.00;;
40717;SDS011;26405;51.850;-2.246;2024-02-15T05:41:03;5.57;;;2.10;;
40717;SDS011;26405;51.850;-2.246;2024-02-15T05:43:29;4.50;;;2.22;;
40717;SDS011;26405;51.850;-2.246;2024-02-15T05:45:55;7.50;;;1.85;;
40717;SDS011;26405;51.850;-2.246;2024-02-15T05:48:26;4.95;;;1.90;;
40717;SDS011;26405;51.850;-2.246;2024-02-15T05:50:51;7.07;;;1.88;;
40717;SDS011;26405;51.850;-2.246;2024-02-15T05:53:21;6.25;;;1.80;;
40717;SDS011;26405;51.850;-2.246;2024-02-15T05:55:47;5.82;;;2.03;;
40717;SDS011;26405;51.850;-2.246;2024-02-15T05:58:15;6.80;;;2.10;;
40717;SDS011;26405;51.850;-2.246;2024-02-15T06:00:40;5.63;;;1.83;;
40717;SDS011;26405;51.850;-2.246;2024-02-15T06:03:06;5.47;;;2.03;;
40717;SDS011;26405;51.850;-2.246;2024-02-15T06:05:34;5.72;;;2.10;;
40717;SDS011;26405;51.850;-2.246;2024-02-15T06:08:00;5.57;;;2.00;;
40717;SDS011;26405;51.850;-2.246;2024-02-15T06:10:25;5.88;;;2.10;;
40717;SDS011;26405;51.850;-2.246;2024-02-15T06:12:51;8.35;;;2.30;;
40717;SDS011;26405;51.850;-2.246;2024-02-15T06:15:16;7.88;;;2.40;;
40717;SDS011;26405;51.850;-2.246;2024-02-15T06:17:42;5.60;;;2.17;;
40717;SDS011;26405;51.850;-2.246;2024-02-15T06:20:14;9.07;;;2.50;;
40717;SDS011;26405;51.850;-2.246;2024-02-15T06:22:40;10.50;;;2.42;;
40717;SDS011;26405;51.850;-2.246;2024-02-15T06:25:08;10.02;;;2.08;;
40717;SDS011;26405;51.850;-2.246;2024-02-15T06:27:37;9.68;;;2.10;;
40717;SDS011;26405;51.850;-2.246;2024-02-15T06:30:06;10.23;;;2.90;;
40717;SDS011;26405;51.850;-2.246;2024-02-15T06:32:53;6.78;;;2.53;;
40717;SDS011;26405;51.850;-2.246;2024-02-15T06:35:37;6.20;;;2.47;;
40717;SDS011;26405;51.850;-2.246;2024-02-15T06:38:20;6.57;;;2.22;;
40717;SDS011;26405;51.850;-2.246;2024-02-15T06:41:06;6.85;;;2.20;;
40717;SDS011;26405;51.850;-2.246;2024-02-15T06:43:31;10.52;;;2.75;;
40717;SDS011;26405;51.850;-2.246;2024-02-15T06:45:58;8.45;;;2.67;;
40717;SDS011;26405;51.850;-2.246;2024-02-15T06:48:26;9.32;;;2.67;;
40717;SDS011;26405;51.850;-2.246;2024-02-15T06:50:55;13.23;;;3.28;;
40717;SDS011;26405;51.850;-2.246;2024-02-15T06:53:21;11.95;;;2.45;;
40717;SDS011;26405;51.850;-2.246;2024-02-15T06:55:46;10.65;;;3.03;;
40717;SDS011;26405;51.850;-2.246;2024-02-15T06:58:14;11.43;;;3.00;;
40717;SDS011;26405;51.850;-2.246;2024-02-15T07:03:07;12.93;;;3.10;;
40717;SDS011;26405;51.850;-2.246;2024-02-15T07:05:33;13.27;;;3.03;;
40717;SDS011;26405;51.850;-2.246;2024-02-15T07:08:01;13.52;;;3.28;;
40717;SDS011;26405;51.850;-2.246;2024-02-15T07:10:26;13.48;;;3.40;;
40717;SDS011;26405;51.850;-2.246;2024-02-15T07:12:52;12.80;;;3.03;;
40717;SDS011;26405;51.850;-2.246;2024-02-15T07:15:17;12.73;;;3.53;;
40717;SDS011;26405;51.850;-2.246;2024-02-15T07:17:43;8.95;;;2.90;;
40717;SDS011;26405;51.850;-2.246;2024-02-15T07:20:12;12.30;;;3.60;;
40717;SDS011;26405;51.850;-2.246;2024-02-15T07:22:43;11.18;;;3.25;;
40717;SDS011;26405;51.850;-2.246;2024-02-15T07:25:09;13.77;;;3.30;;
40717;SDS011;26405;51.850;-2.246;2024-02-15T07:27:35;13.20;;;3.20;;
40717;SDS011;26405;51.850;-2.246;2024-02-15T07:30:00;16.30;;;3.65;;
40717;SDS011;26405;51.850;-2.246;2024-02-15T07:32:27;15.47;;;3.57;;
40717;SDS011;26405;51.850;-2.246;2024-02-15T07:34:52;10.43;;;3.40;;
40717;SDS011;26405;51.850;-2.246;2024-02-15T07:37:20;14.95;;;3.47;;
40717;SDS011;26405;51.850;-2.246;2024-02-15T07:39:47;13.27;;;3.50;;
40717;SDS011;26405;51.850;-2.246;2024-02-15T07:42:12;13.48;;;3.55;;
40717;SDS011;26405;51.850;-2.246;2024-02-15T07:44:37;12.93;;;3.70;;
40717;SDS011;26405;51.850;-2.246;2024-02-15T07:47:03;15.00;;;3.55;;
40717;SDS011;26405;51.850;-2.246;2024-02-15T07:49:29;13.13;;;3.17;;
40717;SDS011;26405;51.850;-2.246;2024-02-15T07:51:55;15.57;;;3.67;;
40717;SDS011;26405;51.850;-2.246;2024-02-15T07:54:20;15.52;;;3.83;;
40717;SDS011;26405;51.850;-2.246;2024-02-15T07:56:49;12.80;;;3.83;;
40717;SDS011;26405;51.850;-2.246;2024-02-15T07:59:14;15.65;;;3.95;;
40717;SDS011;26405;51.850;-2.246;2024-02-15T08:01:42;12.57;;;3.70;;
40717;SDS011;26405;51.850;-2.246;2024-02-15T08:04:08;12.50;;;3.35;;
40717;SDS011;26405;51.850;-2.246;2024-02-15T08:06:34;11.30;;;3.38;;
40717;SDS011;26405;51.850;-2.246;2024-02-15T08:09:02;16.90;;;3.83;;
40717;SDS011;26405;51.850;-2.246;2024-02-15T08:11:30;12.30;;;3.60;;
40717;SDS011;26405;51.850;-2.246;2024-02-15T08:13:55;15.65;;;4.40;;
40717;SDS011;26405;51.850;-2.246;2024-02-15T08:16:24;18.75;;;3.83;;
40717;SDS011;26405;51.850;-2.246;2024-02-15T08:18:57;16.23;;;4.15;;
40717;SDS011;26405;51.850;-2.246;2024-02-15T08:21:29;16.92;;;3.95;;
40717;SDS011;26405;51.850;-2.246;2024-02-15T08:24:00;17.05;;;4.10;;
40717;SDS011;26405;51.850;-2.246;2024-02-15T08:26:31;15.93;;;4.05;;
40717;SDS011;26405;51.850;-2.246;2024-02-15T08:28:56;13.98;;;3.78;;
40717;SDS011;26405;51.850;-2.246;2024-02-15T08:31:22;20.05;;;4.15;;
40717;SDS011;26405;51.850;-2.246;2024-02-15T08:33:47;17.58;;;3.83;;
40717;SDS011;26405;51.850;-2.246;2024-02-15T08:36:15;17.45;;;4.38;;
40717;SDS011;26405;51.850;-2.246;2024-02-15T08:38:41;16.33;;;4.13;;
40717;SDS011;26405;51.850;-2.246;2024-02-15T08:41:07;21.20;;;5.05;;
40717;SDS011;26405;51.850;-2.246;2024-02-15T08:43:33;14.23;;;4.10;;
40717;SDS011;26405;51.850;-2.246;2024-02-15T08:45:59;18.00;;;4.72;;
40717;SDS011;26405;51.850;-2.246;2024-02-15T08:48:24;18.73;;;4.65;;
40717;SDS011;26405;51.850;-2.246;2024-02-15T08:50:52;19.65;;;4.53;;
40717;SDS011;26405;51.850;-2.246;2024-02-15T08:53:18;19.83;;;4.43;;
40717;SDS011;26405;51.850;-2.246;2024-02-15T08:55:47;17.52;;;4.25;;
40717;SDS011;26405;51.850;-2.246;2024-02-15T08:58:12;15.95;;;4.40;;
40717;SDS011;26405;51.850;-2.246;2024-02-15T09:00:38;15.93;;;3.70;;
40717;SDS011;26405;51.850;-2.246;2024-02-15T09:03:09;16.38;;;3.70;;
40717;SDS011;26405;51.850;-2.246;2024-02-15T09:05:35;13.43;;;3.28;;
40717;SDS011;26405;51.850;-2.246;2024-02-15T09:08:00;12.68;;;3.35;;
40717;SDS011;26405;51.850;-2.246;2024-02-15T09:10:25;17.75;;;4.38;;
40717;SDS011;26405;51.850;-2.246;2024-02-15T09:12:52;16.40;;;4.00;;
40717;SDS011;26405;51.850;-2.246;2024-02-15T09:15:17;14.23;;;3.70;;
40717;SDS011;26405;51.850;-2.246;2024-02-15T09:17:46;14.07;;;3.65;;
40717;SDS011;26405;51.850;-2.246;2024-02-15T09:20:12;16.27;;;3.47;;
40717;SDS011;26405;51.850;-2.246;2024-02-15T09:22:41;13.38;;;3.70;;
40717;SDS011;26405;51.850;-2.246;2024-02-15T09:25:07;15.60;;;3.47;;
40717;SDS011;26405;51.850;-2.246;2024-02-15T09:27:33;17.33;;;4.60;;
40717;SDS011;26405;51.850;-2.246;2024-02-15T09:29:58;10.52;;;3.08;;
40717;SDS011;26405;51.850;-2.246;2024-02-15T09:32:23;9.50;;;3.13;;
40717;SDS011;26405;51.850;-2.246;2024-02-15T09:34:49;11.63;;;3.22;;
40717;SDS011;26405;51.850;-2.246;2024-02-15T09:37:14;10.73;;;3.10;;
40717;SDS011;26405;51.850;-2.246;2024-02-15T09:39:40;12.07;;;3.30;;
40717;SDS011;26405;51.850;-2.246;2024-02-15T09:42:05;12.07;;;3.20;;
40717;SDS011;26405;51.850;-2.246;2024-02-15T09:44:30;6.55;;;2.97;;
40717;SDS011;26405;51.850;-2.246;2024-02-15T09:47:01;12.73;;;3.45;;
40717;SDS011;26405;51.850;-2.246;2024-02-15T09:49:28;13.82;;;3.85;;
40717;SDS011;26405;51.850;-2.246;2024-02-15T09:51:54;9.40;;;3.10;;
40717;SDS011;26405;51.850;-2.246;2024-02-15T09:54:20;11.10;;;3.40;;
40717;SDS011;26405;51.850;-2.246;2024-02-15T09:56:50;16.98;;;3.53;;
40717;SDS011;26405;51.850;-2.246;2024-02-15T09:59:16;12.65;;;3.58;;
40717;SDS011;26405;51.850;-2.246;2024-02-15T10:01:43;12.20;;;3.28;;
40717;SDS011;26405;51.850;-2.246;2024-02-15T10:04:14;13.52;;;3.42;;
40717;SDS011;26405;51.850;-2.246;2024-02-15T10:06:42;12.30;;;3.30;;
40717;SDS011;26405;51.850;-2.246;2024-02-15T10:09:23;12.70;;;3.25;;
40717;SDS011;26405;51.850;-2.246;2024-02-15T10:12:00;10.63;;;3.13;;
40717;SDS011;26405;51.850;-2.246;2024-02-15T10:14:26;12.60;;;3.67;;
40717;SDS011;26405;51.850;-2.246;2024-02-15T10:16:52;13.90;;;3.73;;
40717;SDS011;26405;51.850;-2.246;2024-02-15T10:19:22;12.07;;;3.38;;
40717;SDS011;26405;51.850;-2.246;2024-02-15T10:21:53;13.60;;;3.35;;
40717;SDS011;26405;51.850;-2.246;2024-02-15T10:24:21;13.20;;;3.35;;
40717;SDS011;26405;51.850;-2.246;2024-02-15T10:26:49;12.38;;;3.60;;
40717;SDS011;26405;51.850;-2.246;2024-02-15T10:29:14;14.95;;;3.90;;
40717;SDS011;26405;51.850;-2.246;2024-02-15T10:31:58;9.68;;;3.30;;
40717;SDS011;26405;51.850;-2.246;2024-02-15T10:34:27;11.48;;;3.15;;
40717;SDS011;26405;51.850;-2.246;2024-02-15T10:39:37;13.90;;;3.88;;
40717;SDS011;26405;51.850;-2.246;2024-02-15T10:42:03;11.52;;;3.30;;
40717;SDS011;26405;51.850;-2.246;2024-02-15T10:44:31;13.35;;;4.00;;
40717;SDS011;26405;51.850;-2.246;2024-02-15T10:46:59;12.95;;;3.85;;
40717;SDS011;26405;51.850;-2.246;2024-02-15T10:49:25;15.77;;;3.90;;
40717;SDS011;26405;51.850;-2.246;2024-02-15T10:51:57;13.55;;;4.07;;
40717;SDS011;26405;51.850;-2.246;2024-02-15T10:57:14;10.20;;;3.50;;
40717;SDS011;26405;51.850;-2.246;2024-02-15T10:59:59;14.18;;;3.47;;
40717;SDS011;26405;51.850;-2.246;2024-02-15T11:02:58;10.52;;;3.33;;
40717;SDS011;26405;51.850;-2.246;2024-02-15T11:05:27;10.23;;;3.00;;
40717;SDS011;26405;51.850;-2.246;2024-02-15T11:07:57;13.18;;;3.85;;
40717;SDS011;26405;51.850;-2.246;2024-02-15T11:10:23;12.20;;;3.30;;
40717;SDS011;26405;51.850;-2.246;2024-02-15T11:12:50;11.77;;;3.17;;
40717;SDS011;26405;51.850;-2.246;2024-02-15T11:18:00;13.90;;;3.38;;
40717;SDS011;26405;51.850;-2.246;2024-02-15T11:22:57;9.43;;;2.90;;
40717;SDS011;26405;51.850;-2.246;2024-02-15T11:25:41;10.68;;;2.95;;
40717;SDS011;26405;51.850;-2.246;2024-02-15T11:30:45;10.68;;;3.35;;
40717;SDS011;26405;51.850;-2.246;2024-02-15T11:33:30;12.25;;;3.00;;
40717;SDS011;26405;51.850;-2.246;2024-02-15T11:38:33;10.30;;;3.05;;
40717;SDS011;26405;51.850;-2.246;2024-02-15T11:41:05;9.37;;;3.00;;
40717;SDS011;26405;51.850;-2.246;2024-02-15T11:46:15;8.50;;;3.08;;
40717;SDS011;26405;51.850;-2.246;2024-02-15T11:48:47;9.88;;;3.00;;
40717;SDS011;26405;51.850;-2.246;2024-02-15T11:54:01;12.75;;;3.58;;
40717;SDS011;26405;51.850;-2.246;2024-02-15T11:56:26;14.50;;;3.30;;
40717;SDS011;26405;51.850;-2.246;2024-02-15T11:59:12;12.07;;;3.37;;
40717;SDS011;26405;51.850;-2.246;2024-02-15T12:01:58;8.85;;;3.22;;
40717;SDS011;26405;51.850;-2.246;2024-02-15T12:04:42;10.93;;;3.55;;
40717;SDS011;26405;51.850;-2.246;2024-02-15T12:07:28;10.70;;;3.40;;
40717;SDS011;26405;51.850;-2.246;2024-02-15T12:10:19;7.30;;;3.20;;
40717;SDS011;26405;51.850;-2.246;2024-02-15T12:13:07;15.27;;;3.83;;
40717;SDS011;26405;51.850;-2.246;2024-02-15T12:16:03;10.57;;;3.50;;
40717;SDS011;26405;51.850;-2.246;2024-02-15T12:18:49;11.30;;;3.60;;
40717;SDS011;26405;51.850;-2.246;2024-02-15T12:21:23;11.10;;;3.53;;
40717;SDS011;26405;51.850;-2.246;2024-02-15T12:23:50;12.40;;;3.60;;
40717;SDS011;26405;51.850;-2.246;2024-02-15T12:26:20;11.63;;;3.30;;
40717;SDS011;26405;51.850;-2.246;2024-02-15T12:28:51;12.38;;;3.45;;
40717;SDS011;26405;51.850;-2.246;2024-02-15T12:31:21;12.43;;;3.53;;
40717;SDS011;26405;51.850;-2.246;2024-02-15T12:33:58;13.07;;;3.83;;
40717;SDS011;26405;51.850;-2.246;2024-02-15T12:36:26;11.52;;;3.58;;
40717;SDS011;26405;51.850;-2.246;2024-02-15T12:39:01;11.27;;;3.60;;
40717;SDS011;26405;51.850;-2.246;2024-02-15T12:41:27;18.85;;;3.88;;
40717;SDS011;26405;51.850;-2.246;2024-02-15T12:43:52;12.50;;;3.40;;
40717;SDS011;26405;51.850;-2.246;2024-02-15T12:46:21;11.20;;;3.67;;
40717;SDS011;26405;51.850;-2.246;2024-02-15T12:48:46;13.52;;;3.85;;
40717;SDS011;26405;51.850;-2.246;2024-02-15T12:51:19;12.88;;;3.60;;
40717;SDS011;26405;51.850;-2.246;2024-02-15T12:53:47;11.50;;;3.75;;
40717;SDS011;26405;51.850;-2.246;2024-02-15T12:56:19;11.43;;;3.77;;
40717;SDS011;26405;51.850;-2.246;2024-02-15T12:58:45;13.38;;;3.65;;
40717;SDS011;26405;51.850;-2.246;2024-02-15T13:01:13;12.23;;;3.58;;
40717;SDS011;26405;51.850;-2.246;2024-02-15T13:03:46;10.23;;;3.33;;
40717;SDS011;26405;51.850;-2.246;2024-02-15T13:06:11;15.73;;;3.53;;
40717;SDS011;26405;51.850;-2.246;2024-02-15T13:08:37;12.63;;;3.50;;
40717;SDS011;26405;51.850;-2.246;2024-02-15T13:11:02;10.73;;;3.43;;
40717;SDS011;26405;51.850;-2.246;2024-02-15T13:13:28;10.33;;;3.60;;
40717;SDS011;26405;51.850;-2.246;2024-02-15T13:15:53;11.97;;;3.60;;
40717;SDS011;26405;51.850;-2.246;2024-02-15T13:18:19;12.30;;;3.70;;
40717;SDS011;26405;51.850;-2.246;2024-02-15T13:20:44;12.53;;;3.60;;
40717;SDS011;26405;51.850;-2.246;2024-02-15T13:23:12;8.23;;;3.30;;
40717;SDS011;26405;51.850;-2.246;2024-02-15T13:25:46;11.00;;;3.60;;
40717;SDS011;26405;51.850;-2.246;2024-02-15T13:28:14;10.60;;;3.65;;
40717;SDS011;26405;51.850;-2.246;2024-02-15T13:33:14;13.60;;;3.92;;
40717;SDS011;26405;51.850;-2.246;2024-02-15T13:35:40;11.80;;;4.03;;
40717;SDS011;26405;51.850;-2.246;2024-02-15T13:38:06;13.77;;;3.80;;
40717;SDS011;26405;51.850;-2.246;2024-02-15T13:40:34;14.70;;;3.67;;
40717;SDS011;26405;51.850;-2.246;2024-02-15T13:43:00;7.33;;;3.17;;
40717;SDS011;26405;51.850;-2.246;2024-02-15T13:45:30;9.45;;;3.45;;
40717;SDS011;26405;51.850;-2.246;2024-02-15T13:47:57;12.35;;;3.63;;
40717;SDS011;26405;51.850;-2.246;2024-02-15T13:50:23;12.03;;;3.43;;
40717;SDS011;26405;51.850;-2.246;2024-02-15T13:52:50;10.85;;;3.88;;
40717;SDS011;26405;51.850;-2.246;2024-02-15T13:55:16;12.77;;;3.67;;
40717;SDS011;26405;51.850;-2.246;2024-02-15T13:57:42;9.90;;;3.45;;
40717;SDS011;26405;51.850;-2.246;2024-02-15T14:00:11;13.68;;;3.72;;
40717;SDS011;26405;51.850;-2.246;2024-02-15T14:02:52;9.32;;;3.10;;
40717;SDS011;26405;51.850;-2.246;2024-02-15T14:05:22;9.73;;;3.50;;
40717;SDS011;26405;51.850;-2.246;2024-02-15T14:07:50;10.70;;;3.50;;
40717;SDS011;26405;51.850;-2.246;2024-02-15T14:10:17;11.73;;;3.20;;
40717;SDS011;26405;51.850;-2.246;2024-02-15T14:12:49;10.30;;;3.20;;
40717;SDS011;26405;51.850;-2.246;2024-02-15T14:15:17;11.10;;;3.58;;
40717;SDS011;26405;51.850;-2.246;2024-02-15T14:17:45;13.53;;;3.47;;
40717;SDS011;26405;51.850;-2.246;2024-02-15T14:20:13;11.93;;;3.10;;
40717;SDS011;26405;51.850;-2.246;2024-02-15T14:22:46;11.10;;;3.17;;
40717;SDS011;26405;51.850;-2.246;2024-02-15T14:25:20;14.30;;;3.40;;
40717;SDS011;26405;51.850;-2.246;2024-02-15T14:27:46;13.67;;;3.50;;
40717;SDS011;26405;51.850;-2.246;2024-02-15T14:32:56;10.75;;;3.25;;
40717;SDS011;26405;51.850;-2.246;2024-02-15T14:35:25;12.55;;;3.83;;
40717;SDS011;26405;51.850;-2.246;2024-02-15T14:37:50;15.87;;;3.80;;
40717;SDS011;26405;51.850;-2.246;2024-02-15T14:40:15;12.50;;;3.63;;
40717;SDS011;26405;51.850;-2.246;2024-02-15T14:42:42;12.13;;;3.40;;
40717;SDS011;26405;51.850;-2.246;2024-02-15T14:45:08;15.53;;;3.47;;
40717;SDS011;26405;51.850;-2.246;2024-02-15T14:47:36;13.82;;;3.25;;
40717;SDS011;26405;51.850;-2.246;2024-02-15T14:50:02;10.98;;;3.13;;
40717;SDS011;26405;51.850;-2.246;2024-02-15T14:52:27;7.83;;;2.57;;
40717;SDS011;26405;51.850;-2.246;2024-02-15T14:54:53;12.97;;;3.50;;
40717;SDS011;26405;51.850;-2.246;2024-02-15T14:57:19;14.38;;;3.28;;
40717;SDS011;26405;51.850;-2.246;2024-02-15T14:59:45;13.77;;;3.73;;
40717;SDS011;26405;51.850;-2.246;2024-02-15T15:02:10;12.10;;;3.70;;
40717;SDS011;26405;51.850;-2.246;2024-02-15T15:04:35;16.00;;;3.70;;
40717;SDS011;26405;51.850;-2.246;2024-02-15T15:07:20;11.77;;;3.13;;
40717;SDS011;26405;51.850;-2.246;2024-02-15T15:10:07;9.27;;;3.15;;